Pagrindinis puslapis
METAR-TAF:

METAR-TAF

Oro uostai :

Zamboanga, Filipinai

platuma: 06-54N, ilguma: 122-04E, Aukštis: 5 m

Dabartinis oras

Ataskaita buvo paskelbta 47 minutes, ne 05:00 UTC
Vėjas 5 kt iš Pietų, svyruoja nuo Pietryčių ir Vakarų/Pietvakarių
Temperatūra 28°C
Drėgmė 84%
Slėgis 1011 hPa
Matomumas 10 km arba daugiau
Mažai debesys ne aukštis 1700 ft
Su prošvaistėmis ne aukštis 9000 ft

METAR: RPMZ 130500Z 19005KT 140V240 9999 FEW017 BKN090 28/25 Q1011 RMK A2985

Laikas: 13:47 (05:47 UTC)

Prognozė

Ataskaita buvo paskelbta 47 minutes, ne 05:00 UTC
Prognozė galioja nuo 13 metu 06 UTC su 14 metu 06 UTC
Vėjas 6 kt iš Vakarų
Matomumas 10 km arba daugiau
Mažai debesys ne aukštis 1700 ft
Išsisklaidę debesys ne aukštis 9000 ft
Su prošvaistėmis ne aukštis 30000 ft
Laikinai
nuo 13 metu 06 UTC su 13 metu 12 UTC
Vėjas 5 kt iš Vakarų/Pietvakarių
Mažai debesys ne aukštis 1600 ft, Liūtiniai kamuoliniai debesys.
Su prošvaistėmis ne aukštis 9000 ft
lietus

TAF: RPMZ 130500Z 1306/1406 28006KT 9999 FEW017 SCT090 BKN300 TEMPO 1306/1312 25005KT -SHRA FEW016CB BKN090

Orai ataskaitas ir orų prognozės (METAR, TAF).

turimą stotys yra geltonos ir raudonos taškus žemėlapyje.

Perkelti pele per norėdami pamatyti stoties vardą.

Tada spustelėkite, norėdami matyti oro stebėjimo ir prognozės.

Norėdami pakeisti žemėlapį: spustelėkite ant žalios mygtukų su juodo kryžiaus žemyn,; žalią mygtuką su brūkšneliu, jei norite nutolinti; arba žalių rodyklių gretimoms žemėlapius.


METAR-TAF: